Hlavní strana
METAR-TAF:

METAR-TAF

Letiště :

Letiště Karlovy Vary

Karlovy Vary, Česká republika

zeměpisná šířka: 50-12N, zeměpisná délka: 012-55E, výška: 603 m

Aktuální stav počasí

Zpráva byla vytvořena před 48 minutami, v 01:00 UTC
Jižní vítr 1 kt
Teplota 14°C
Vlhkost vzduchu 94%
Tlak 1023 hPa
Viditelnost 10 km a více
Žádná oblačnost pod 1500 m, nevyskytují se cumulonimby.

METAR: LKKV 190100Z 17001KT CAVOK 14/13 Q1023

Čas: 03:48 (01:48 UTC)

Předpověď počasí

Zpráva byla vytvořena před 2 hodinami a 48 minutami, v 23:00 UTC
Předpověď platná od 19 v 00 UTC do 20 v 06 UTC
vítr z různých směrů 2 kt
Viditelnost 10 km a více
Žádná oblačnost pod 1500 m, nevyskytují se cumulonimby.
Pravděpodobnost 30% :
Dočasný
od 19 v 10 UTC do 19 v 18 UTC
Severoseverozápadní vítr 6 kt
Polojasno ve výšce 5000 ft, Cumulonimbus.
dešťové přeháňky

TAF: LKKV 182300Z 1900/2006 VRB02KT CAVOK PROB30 TEMPO 1910/1918 33006KT SHRA SCT050CB

Stav a předpovědi počasí z více než 4 000 letišť (zprávy METAR a TAF).

Červené a žluté tečky na mapě představují dostupné meteorologické stanice.

Když kurzor umístíte na tečku, zobrazí se název stanice.

Pak kliknutím zobrazíte stav a předpověď počasí.

Chcete-li změnit mapu, kliknutím na zelené tlačítko se znaménkem +mapu přiblížíte, kliknutím na zelené tlačítko se znaménkem – mapu oddálíte a kliknutím na zelené šipky přejdete na sousední mapy.


METAR-TAF: